Time;durP1;ratioP1;P1;durP2;ratioP2;P2;SDS_P1;SDS_P2;PMS_P1;PMS_P2;Temp;Humidity;BMP_temperature;BMP_pressure;BME280_temperature;BME280_humidity;BME280_pressure;Samples;Min_cycle;Max_cycle;Signal;HPM_P1;HPM_P2
2022/10/21 00:00:39;;;;;;;;;3.00;2.00;;;;;;;;5100813;27;45290;-75
2022/10/21 00:03:05;;;;;;;;;3.67;2.00;;;;;;;;5074367;27;45580;-75
2022/10/21 00:05:30;;;;;;;;;4.00;2.67;;;;;;;;5081039;27;45526;-75
2022/10/21 00:07:55;;;;;;;;;3.33;2.67;;;;;;;;5071574;27;46810;-74
2022/10/21 00:10:21;;;;;;;;;3.33;1.33;;;;;;;;5087010;27;46047;-74
2022/10/21 00:12:46;;;;;;;;;3.33;2.33;;;;;;;;5088607;27;45200;-74
2022/10/21 00:15:11;;;;;;;;;3.33;2.67;;;;;;;;5081163;27;45272;-74
2022/10/21 00:17:37;;;;;;;;;4.00;3.00;;;;;;;;5091347;27;45240;-75
2022/10/21 00:20:04;;;;;;;;;3.00;2.00;;;;;;;;5084258;27;46375;-74
2022/10/21 00:22:29;;;;;;;;;3.00;3.00;;;;;;;;5092054;27;45209;-75
2022/10/21 00:24:54;;;;;;;;;3.00;2.67;;;;;;;;5097280;27;45497;-75
2022/10/21 00:27:20;;;;;;;;;4.67;2.67;;;;;;;;5093899;27;45401;-74
2022/10/21 00:29:45;;;;;;;;;2.00;2.00;;;;;;;;5083018;27;47216;-75
2022/10/21 00:32:10;;;;;;;;;2.00;2.00;;;;;;;;5094032;27;45283;-75
2022/10/21 00:34:35;;;;;;;;;2.67;2.00;;;;;;;;5098064;27;45225;-75
2022/10/21 00:37:01;;;;;;;;;4.00;2.67;;;;;;;;5095037;27;45758;-75
2022/10/21 00:39:26;;;;;;;;;2.00;2.00;;;;;;;;5089695;27;45307;-75
2022/10/21 00:41:51;;;;;;;;;2.00;2.00;;;;;;;;5088464;27;46593;-75
2022/10/21 00:44:17;;;;;;;;;3.33;3.00;;;;;;;;5090881;27;45320;-75
2022/10/21 00:46:52;;;;;;;;;2.00;2.00;;;;;;;;5094694;27;45291;-75
2022/10/21 00:49:24;;;;;;;;;2.67;2.67;;;;;;;;5090034;27;46415;-75
2022/10/21 00:51:51;;;;;;;;;3.67;3.00;;;;;;;;5074490;28;45333;-75
2022/10/21 00:54:17;;;;;;;;;3.00;3.00;;;;;;;;5083094;27;45373;-75
2022/10/21 00:56:45;;;;;;;;;3.00;3.00;;;;;;;;5086604;27;45453;-75
2022/10/21 00:59:10;;;;;;;;;3.67;2.33;;;;;;;;5069550;28;47720;-75
2022/10/21 01:01:36;;;;;;;;;5.67;3.00;;;;;;;;5068495;28;45272;-75
2022/10/21 01:04:02;;;;;;;;;3.67;2.67;;;;;;;;5073994;27;45290;-74
2022/10/21 01:06:28;;;;;;;;;3.00;3.00;;;;;;;;5088241;27;45553;-75
2022/10/21 01:08:55;;;;;;;;;3.67;2.00;;;;;;;;5084490;27;45182;-75
2022/10/21 01:11:21;;;;;;;;;2.67;2.33;;;;;;;;5089993;27;45155;-74
2022/10/21 01:13:46;;;;;;;;;2.00;2.00;;;;;;;;5065818;28;45382;-75
2022/10/21 01:16:11;;;;;;;;;1.67;1.67;;;;;;;;5090681;27;45311;-75
2022/10/21 01:18:51;;;;;;;;;3.00;3.00;;;;;;;;5090398;27;45563;-75
2022/10/21 01:21:21;;;;;;;;;4.00;4.00;;;;;;;;5095690;27;45283;-75
2022/10/21 01:23:49;;;;;;;;;4.00;4.00;;;;;;;;5095667;27;45345;-75
2022/10/21 01:26:33;;;;;;;;;3.00;3.00;;;;;;;;5072183;27;45376;-75
2022/10/21 01:29:01;;;;;;;;;4.00;4.00;;;;;;;;5090802;27;46438;-75
2022/10/21 01:31:32;;;;;;;;;3.00;3.00;;;;;;;;5067570;27;45944;-75
2022/10/21 01:34:09;;;;;;;;;7.00;3.67;;;;;;;;5090099;27;45372;-75
2022/10/21 01:36:53;;;;;;;;;2.00;2.00;;;;;;;;5082899;27;45885;-75
2022/10/21 01:39:18;;;;;;;;;4.00;2.00;;;;;;;;5079818;27;45550;-75
2022/10/21 01:42:19;;;;;;;;;4.00;3.00;;;;;;;;5067168;27;45429;-75
2022/10/21 01:45:03;;;;;;;;;3.00;3.00;;;;;;;;4991111;28;45304;-75
2022/10/21 01:47:31;;;;;;;;;4.00;2.67;;;;;;;;5062731;27;46363;-75
2022/10/21 01:50:02;;;;;;;;;2.67;2.67;;;;;;;;5090194;27;46708;-75
2022/10/21 01:52:28;;;;;;;;;2.00;2.00;;;;;;;;5092074;27;45377;-75
2022/10/21 01:54:56;;;;;;;;;4.67;3.33;;;;;;;;5094409;27;45437;-75
2022/10/21 01:57:23;;;;;;;;;5.67;4.00;;;;;;;;5096055;27;45507;-75
2022/10/21 01:59:50;;;;;;;;;4.00;3.00;;;;;;;;5076267;27;47175;-75
2022/10/21 02:02:17;;;;;;;;;2.67;2.67;;;;;;;;5086690;27;45429;-75
2022/10/21 02:04:44;;;;;;;;;3.33;3.33;;;;;;;;5084634;27;45300;-76
2022/10/21 02:07:09;;;;;;;;;6.00;3.00;;;;;;;;5088498;27;45426;-77
2022/10/21 02:09:34;;;;;;;;;2.67;2.00;;;;;;;;5079464;27;45518;-77
2022/10/21 02:12:01;;;;;;;;;5.33;3.00;;;;;;;;5086672;27;45370;-82
2022/10/21 02:14:32;;;;;;;;;5.33;4.00;;;;;;;;5083594;27;45410;-85
2022/10/21 02:16:59;;;;;;;;;5.00;3.67;;;;;;;;5097357;27;45395;-82
2022/10/21 02:19:24;;;;;;;;;5.33;5.00;;;;;;;;5092002;27;45689;-80
2022/10/21 02:21:51;;;;;;;;;6.00;5.00;;;;;;;;5095115;27;45384;-81
2022/10/21 02:24:28;;;;;;;;;7.33;6.00;;;;;;;;5080176;27;45446;-83
2022/10/21 02:26:53;;;;;;;;;3.67;3.00;;;;;;;;5083375;27;46008;-82
2022/10/21 02:29:20;;;;;;;;;4.00;3.00;;;;;;;;5094994;27;45635;-84
2022/10/21 02:31:53;;;;;;;;;9.00;4.00;;;;;;;;5098763;27;45308;-81
2022/10/21 02:34:20;;;;;;;;;6.00;4.33;;;;;;;;5095319;27;45404;-81
2022/10/21 02:36:52;;;;;;;;;4.00;4.00;;;;;;;;5084073;27;45689;-81
2022/10/21 02:39:25;;;;;;;;;6.00;4.67;;;;;;;;5099141;27;45310;-81
2022/10/21 02:41:51;;;;;;;;;4.00;4.00;;;;;;;;5085748;27;45268;-82
2022/10/21 02:44:17;;;;;;;;;9.33;5.33;;;;;;;;5098349;27;45417;-81
2022/10/21 02:46:43;;;;;;;;;4.00;4.00;;;;;;;;5098176;27;45314;-84
2022/10/21 02:49:08;;;;;;;;;4.67;4.67;;;;;;;;5081076;27;45458;-82
2022/10/21 02:51:34;;;;;;;;;3.00;1.33;;;;;;;;5085818;27;45410;-83
2022/10/21 02:53:59;;;;;;;;;5.00;4.00;;;;;;;;5087587;27;45327;-83
2022/10/21 02:56:25;;;;;;;;;4.33;4.00;;;;;;;;5088839;27;45240;-83
2022/10/21 02:58:50;;;;;;;;;6.33;5.00;;;;;;;;5075532;27;47682;-82
2022/10/21 03:01:16;;;;;;;;;4.33;4.00;;;;;;;;5089679;27;45408;-83
2022/10/21 03:03:41;;;;;;;;;4.00;4.00;;;;;;;;5095741;27;45166;-85
2022/10/21 03:06:06;;;;;;;;;8.00;5.33;;;;;;;;5091431;27;45261;-84
2022/10/21 03:08:31;;;;;;;;;3.67;3.67;;;;;;;;5094168;27;45397;-83
2022/10/21 03:10:56;;;;;;;;;4.33;4.33;;;;;;;;5096794;27;45342;-82
2022/10/21 03:13:22;;;;;;;;;5.00;5.00;;;;;;;;5093043;27;45358;-82
2022/10/21 03:15:47;;;;;;;;;4.00;4.00;;;;;;;;5083912;27;45451;-82
2022/10/21 03:18:12;;;;;;;;;4.67;4.00;;;;;;;;5095441;27;46339;-82
2022/10/21 03:20:38;;;;;;;;;5.67;5.00;;;;;;;;5101510;27;45160;-81
2022/10/21 03:23:03;;;;;;;;;5.00;3.00;;;;;;;;5088681;27;45548;-81
2022/10/21 03:25:28;;;;;;;;;4.00;4.00;;;;;;;;5093122;27;45429;-80
2022/10/21 03:27:53;;;;;;;;;5.33;4.33;;;;;;;;5090564;27;46680;-80
2022/10/21 03:30:18;;;;;;;;;4.00;4.00;;;;;;;;5097602;27;45142;-80
2022/10/21 03:32:43;;;;;;;;;8.00;4.33;;;;;;;;5089584;27;45358;-80
2022/10/21 03:35:09;;;;;;;;;6.00;4.33;;;;;;;;5101838;27;45477;-80
2022/10/21 03:37:34;;;;;;;;;4.00;4.00;;;;;;;;5092966;27;46115;-80
2022/10/21 03:39:59;;;;;;;;;5.67;5.00;;;;;;;;5093581;27;45157;-80
2022/10/21 03:42:26;;;;;;;;;4.00;4.00;;;;;;;;5086997;27;45495;-79
2022/10/21 03:44:51;;;;;;;;;4.00;4.00;;;;;;;;5090547;27;45735;-79
2022/10/21 03:47:16;;;;;;;;;7.33;5.00;;;;;;;;5088762;27;45521;-80
2022/10/21 03:49:41;;;;;;;;;4.67;4.33;;;;;;;;5090134;27;45449;-80
2022/10/21 03:52:06;;;;;;;;;6.00;5.67;;;;;;;;5088364;27;45309;-79
2022/10/21 03:54:32;;;;;;;;;7.67;5.00;;;;;;;;5092656;27;45437;-80
2022/10/21 03:56:57;;;;;;;;;7.00;4.00;;;;;;;;5089669;27;45538;-79
2022/10/21 03:59:22;;;;;;;;;4.00;3.67;;;;;;;;5099843;27;45464;-79
2022/10/21 04:01:47;;;;;;;;;4.00;4.00;;;;;;;;5097336;27;45552;-79
2022/10/21 04:04:12;;;;;;;;;3.67;3.33;;;;;;;;5071881;28;45421;-78
2022/10/21 04:06:38;;;;;;;;;7.00;3.33;;;;;;;;5083952;27;46125;-78
2022/10/21 04:09:03;;;;;;;;;4.00;3.00;;;;;;;;5089853;27;45395;-78
2022/10/21 04:11:28;;;;;;;;;3.00;3.00;;;;;;;;5092506;27;45312;-78
2022/10/21 04:13:53;;;;;;;;;5.67;5.00;;;;;;;;5087719;27;45295;-77
2022/10/21 04:16:20;;;;;;;;;2.67;2.67;;;;;;;;5094464;27;46120;-76
2022/10/21 04:18:45;;;;;;;;;4.00;4.00;;;;;;;;5093366;27;45422;-78
2022/10/21 04:21:11;;;;;;;;;4.00;3.00;;;;;;;;5098364;27;45509;-77
2022/10/21 04:23:36;;;;;;;;;5.33;3.33;;;;;;;;5079594;27;45325;-77
2022/10/21 04:26:02;;;;;;;;;5.33;4.33;;;;;;;;5079419;27;46708;-77
2022/10/21 04:28:28;;;;;;;;;6.00;4.00;;;;;;;;5083796;27;45468;-79
2022/10/21 04:30:53;;;;;;;;;4.67;4.00;;;;;;;;5089891;27;45154;-80
2022/10/21 04:33:18;;;;;;;;;9.00;5.33;;;;;;;;5090877;27;45370;-77
2022/10/21 04:35:43;;;;;;;;;7.00;6.00;;;;;;;;5080917;27;46746;-77
2022/10/21 04:38:09;;;;;;;;;4.00;4.00;;;;;;;;5087214;27;45302;-75
2022/10/21 04:40:34;;;;;;;;;6.00;6.00;;;;;;;;5097283;27;45208;-77
2022/10/21 04:42:59;;;;;;;;;7.67;6.00;;;;;;;;5086155;27;46516;-77
2022/10/21 04:45:24;;;;;;;;;7.00;6.00;;;;;;;;5096085;27;46120;-78
2022/10/21 04:47:50;;;;;;;;;9.00;7.67;;;;;;;;5088760;27;45414;-78
2022/10/21 04:50:15;;;;;;;;;12.00;7.33;;;;;;;;5099602;27;45252;-78
2022/10/21 04:52:40;;;;;;;;;6.00;6.00;;;;;;;;5083849;27;45387;-77
2022/10/21 04:55:05;;;;;;;;;6.67;6.00;;;;;;;;5086455;27;45263;-78
2022/10/21 04:57:31;;;;;;;;;10.00;7.33;;;;;;;;5085592;27;45317;-77
2022/10/21 04:59:56;;;;;;;;;10.00;5.67;;;;;;;;5085373;27;45567;-79
2022/10/21 05:02:21;;;;;;;;;6.00;6.00;;;;;;;;5070125;27;45493;-81
2022/10/21 05:04:47;;;;;;;;;9.67;9.00;;;;;;;;5096183;27;46975;-79
2022/10/21 05:07:12;;;;;;;;;8.33;6.00;;;;;;;;5089651;27;45481;-79
2022/10/21 05:09:37;;;;;;;;;9.00;6.00;;;;;;;;5086095;27;45325;-79
2022/10/21 05:12:03;;;;;;;;;8.67;8.33;;;;;;;;5083367;27;45442;-80
2022/10/21 05:14:28;;;;;;;;;8.00;7.00;;;;;;;;5085771;27;45484;-81
2022/10/21 05:16:53;;;;;;;;;9.00;8.00;;;;;;;;5088640;27;45406;-85
2022/10/21 05:19:18;;;;;;;;;8.00;8.00;;;;;;;;5087983;27;45281;-85
2022/10/21 05:21:45;;;;;;;;;6.00;6.00;;;;;;;;5094423;27;45583;-83
2022/10/21 05:24:11;;;;;;;;;9.33;6.00;;;;;;;;5091105;27;45993;-82
2022/10/21 05:26:36;;;;;;;;;8.00;6.67;;;;;;;;5085594;27;45335;-81
2022/10/21 05:29:01;;;;;;;;;7.33;6.67;;;;;;;;5090795;27;45272;-82
2022/10/21 05:31:26;;;;;;;;;6.00;5.00;;;;;;;;5073345;27;45617;-80
2022/10/21 05:33:51;;;;;;;;;8.67;7.33;;;;;;;;5086819;27;45422;-79
2022/10/21 05:36:17;;;;;;;;;6.00;6.00;;;;;;;;5066536;27;45244;-79
2022/10/21 05:38:42;;;;;;;;;10.00;7.00;;;;;;;;5097682;27;45556;-79
2022/10/21 05:41:09;;;;;;;;;6.67;4.67;;;;;;;;5099752;27;45247;-79
2022/10/21 05:43:35;;;;;;;;;8.67;7.67;;;;;;;;5091540;27;46164;-79
2022/10/21 05:46:00;;;;;;;;;7.33;6.00;;;;;;;;5073418;27;45248;-79
2022/10/21 05:48:25;;;;;;;;;6.00;5.00;;;;;;;;5089793;27;45340;-80
2022/10/21 05:50:51;;;;;;;;;7.33;7.33;;;;;;;;5067896;27;46970;-80
2022/10/21 05:53:17;;;;;;;;;11.00;7.67;;;;;;;;5087558;27;45746;-80
2022/10/21 05:55:42;;;;;;;;;9.00;6.67;;;;;;;;5096035;27;45438;-80
2022/10/21 05:58:07;;;;;;;;;9.33;7.67;;;;;;;;5079705;27;45461;-80
2022/10/21 06:00:32;;;;;;;;;6.67;5.67;;;;;;;;5063448;27;47042;-81
2022/10/21 06:02:57;;;;;;;;;5.33;5.33;;;;;;;;5084822;27;46273;-80
2022/10/21 06:05:23;;;;;;;;;5.67;4.00;;;;;;;;5077883;27;45389;-80
2022/10/21 06:07:48;;;;;;;;;5.67;5.00;;;;;;;;5087303;27;45404;-80
2022/10/21 06:10:15;;;;;;;;;5.00;4.33;;;;;;;;5086566;27;45426;-79
2022/10/21 06:12:40;;;;;;;;;6.33;5.33;;;;;;;;5087157;27;46079;-79
2022/10/21 06:15:06;;;;;;;;;6.00;4.00;;;;;;;;5082081;27;45467;-79
2022/10/21 06:17:31;;;;;;;;;12.67;5.67;;;;;;;;5065633;27;45521;-82
2022/10/21 06:19:56;;;;;;;;;5.33;5.00;;;;;;;;5104192;27;45719;-80
2022/10/21 06:22:21;;;;;;;;;4.67;2.00;;;;;;;;5075617;28;45235;-80
2022/10/21 06:24:48;;;;;;;;;6.33;4.00;;;;;;;;5077963;27;45237;-76
2022/10/21 06:27:13;;;;;;;;;4.00;4.00;;;;;;;;5072111;27;45492;-81
2022/10/21 06:29:38;;;;;;;;;9.00;5.00;;;;;;;;5077075;27;45247;-79
2022/10/21 06:32:04;;;;;;;;;3.00;3.00;;;;;;;;5093011;27;45458;-80
2022/10/21 06:34:29;;;;;;;;;4.33;4.00;;;;;;;;5100022;27;45221;-78
2022/10/21 06:36:54;;;;;;;;;3.00;3.00;;;;;;;;5096852;27;45139;-80
2022/10/21 06:39:19;;;;;;;;;6.33;3.00;;;;;;;;5087072;27;45616;-82
2022/10/21 06:41:44;;;;;;;;;4.00;2.00;;;;;;;;5085820;27;46094;-80
2022/10/21 06:44:10;;;;;;;;;3.00;3.00;;;;;;;;5090367;27;45233;-81
2022/10/21 06:46:35;;;;;;;;;3.67;3.00;;;;;;;;5076646;28;45275;-80
2022/10/21 06:49:00;;;;;;;;;5.33;4.00;;;;;;;;5088245;27;45270;-81
2022/10/21 06:51:25;;;;;;;;;4.67;4.00;;;;;;;;5085836;27;45308;-80
2022/10/21 06:53:52;;;;;;;;;3.33;3.33;;;;;;;;5099012;27;45479;-78
2022/10/21 06:56:18;;;;;;;;;6.67;5.00;;;;;;;;5074114;27;45466;-78
2022/10/21 06:58:47;;;;;;;;;2.00;2.00;;;;;;;;5095808;27;45273;-77
2022/10/21 07:01:15;;;;;;;;;5.33;3.00;;;;;;;;5095703;27;45650;-77
2022/10/21 07:03:40;;;;;;;;;3.33;3.33;;;;;;;;5091859;27;45424;-76
2022/10/21 07:06:05;;;;;;;;;3.33;3.00;;;;;;;;5081366;27;45224;-76
2022/10/21 07:08:31;;;;;;;;;2.67;2.67;;;;;;;;5092954;27;45407;-77
2022/10/21 07:10:56;;;;;;;;;5.00;4.00;;;;;;;;5085546;27;45391;-77
2022/10/21 07:13:22;;;;;;;;;2.33;2.33;;;;;;;;5084831;27;45388;-77
2022/10/21 07:15:47;;;;;;;;;3.00;3.00;;;;;;;;5087984;27;45283;-79
2022/10/21 07:18:12;;;;;;;;;4.00;3.00;;;;;;;;5086066;27;45277;-78
2022/10/21 07:20:38;;;;;;;;;3.33;3.33;;;;;;;;5077162;27;46429;-78
2022/10/21 07:23:03;;;;;;;;;4.67;4.00;;;;;;;;5087174;27;45319;-76
2022/10/21 07:25:28;;;;;;;;;3.00;3.00;;;;;;;;5091011;27;45357;-80
2022/10/21 07:27:53;;;;;;;;;7.33;5.00;;;;;;;;5090501;27;45431;-76
2022/10/21 07:30:18;;;;;;;;;3.67;3.33;;;;;;;;5092478;27;46121;-77
2022/10/21 07:32:44;;;;;;;;;5.00;4.00;;;;;;;;5091630;27;45409;-76
2022/10/21 07:35:09;;;;;;;;;7.33;5.00;;;;;;;;5093350;27;45627;-76
2022/10/21 07:37:34;;;;;;;;;8.67;5.00;;;;;;;;5093339;27;45497;-76
2022/10/21 07:39:59;;;;;;;;;5.00;4.00;;;;;;;;5095265;27;45388;-76
2022/10/21 07:42:26;;;;;;;;;4.67;4.00;;;;;;;;5073068;27;45456;-76
2022/10/21 07:44:59;;;;;;;;;2.67;2.00;;;;;;;;5074656;27;45346;-76
2022/10/21 07:47:25;;;;;;;;;4.67;4.67;;;;;;;;5090073;27;45346;-75
2022/10/21 07:49:50;;;;;;;;;6.33;4.00;;;;;;;;5085432;27;46239;-76
2022/10/21 07:52:15;;;;;;;;;6.67;6.67;;;;;;;;5075676;27;45457;-76
2022/10/21 07:54:41;;;;;;;;;11.00;8.67;;;;;;;;5082203;27;45406;-76
2022/10/21 07:57:06;;;;;;;;;15.33;13.00;;;;;;;;5083239;27;45359;-76
2022/10/21 07:59:31;;;;;;;;;20.00;18.00;;;;;;;;5065168;27;46938;-76
2022/10/21 08:01:57;;;;;;;;;14.33;13.00;;;;;;;;5082224;27;45742;-76
2022/10/21 08:04:30;;;;;;;;;13.00;11.67;;;;;;;;5086003;27;45247;-77
2022/10/21 08:06:56;;;;;;;;;8.67;8.00;;;;;;;;5093108;27;45349;-77
2022/10/21 08:09:21;;;;;;;;;6.00;5.33;;;;;;;;5093092;27;45601;-77
2022/10/21 08:11:46;;;;;;;;;5.00;5.00;;;;;;;;5093055;27;45782;-76
2022/10/21 08:14:12;;;;;;;;;5.00;5.00;;;;;;;;5099178;27;45382;-76
2022/10/21 08:16:37;;;;;;;;;6.67;3.33;;;;;;;;5097061;27;45596;-77
2022/10/21 08:19:03;;;;;;;;;6.67;4.00;;;;;;;;5083914;27;47195;-76
2022/10/21 08:21:29;;;;;;;;;4.00;4.00;;;;;;;;5092157;27;45287;-77
2022/10/21 08:23:55;;;;;;;;;6.67;6.33;;;;;;;;5089741;27;45311;-77
2022/10/21 08:26:20;;;;;;;;;5.67;4.33;;;;;;;;5090494;27;45932;-77
2022/10/21 08:28:45;;;;;;;;;7.00;5.67;;;;;;;;5093511;27;45633;-76
2022/10/21 08:31:12;;;;;;;;;10.00;6.00;;;;;;;;5080641;27;45584;-76
2022/10/21 08:33:37;;;;;;;;;2.00;1.00;;;;;;;;5093919;27;45349;-76
2022/10/21 08:36:06;;;;;;;;;7.00;5.00;;;;;;;;5097756;27;45298;-77
2022/10/21 08:38:31;;;;;;;;;4.00;4.00;;;;;;;;5089050;27;46432;-76
2022/10/21 08:40:58;;;;;;;;;6.67;5.00;;;;;;;;5071184;27;45346;-77
2022/10/21 08:43:34;;;;;;;;;6.67;4.00;;;;;;;;5095810;27;45856;-77
2022/10/21 08:46:18;;;;;;;;;4.67;4.67;;;;;;;;5096177;27;45251;-77
2022/10/21 08:48:46;;;;;;;;;2.00;2.00;;;;;;;;5089203;27;45359;-77
2022/10/21 08:51:21;;;;;;;;;4.00;4.00;;;;;;;;5090485;27;45456;-77
2022/10/21 08:53:47;;;;;;;;;7.00;4.00;;;;;;;;5084461;27;45247;-77
2022/10/21 08:56:14;;;;;;;;;0.00;0.00;;;;;;;;5068586;27;47113;-77
2022/10/21 08:58:40;;;;;;;;;3.33;2.00;;;;;;;;5086690;27;45514;-77
2022/10/21 09:01:11;;;;;;;;;3.67;3.67;;;;;;;;5074404;27;45327;-77
2022/10/21 09:03:45;;;;;;;;;4.33;4.00;;;;;;;;5078065;27;45451;-76
2022/10/21 09:06:13;;;;;;;;;5.67;4.00;;;;;;;;5079689;27;45276;-76
2022/10/21 09:08:53;;;;;;;;;2.00;1.67;;;;;;;;5080602;27;46923;-76
2022/10/21 09:11:31;;;;;;;;;6.33;4.00;;;;;;;;5079945;27;45474;-77
2022/10/21 09:14:00;;;;;;;;;3.00;3.00;;;;;;;;5096780;27;45377;-78
2022/10/21 09:16:25;;;;;;;;;3.67;3.33;;;;;;;;5096747;27;45480;-77
2022/10/21 09:18:53;;;;;;;;;3.00;3.00;;;;;;;;5094490;27;45478;-77
2022/10/21 09:21:37;;;;;;;;;2.67;2.67;;;;;;;;5099203;27;45337;-76
2022/10/21 09:24:02;;;;;;;;;1.67;1.67;;;;;;;;5094408;27;45270;-78
2022/10/21 09:26:31;;;;;;;;;1.33;1.33;;;;;;;;5091637;27;45362;-76
2022/10/21 09:28:56;;;;;;;;;7.00;4.00;;;;;;;;5100968;27;45229;-83
2022/10/21 09:31:21;;;;;;;;;3.67;2.67;;;;;;;;5119842;27;44655;-82
2022/10/21 09:33:55;;;;;;;;;4.00;4.00;;;;;;;;5116747;27;44717;-84
2022/10/21 09:36:35;;;;;;;;;4.33;3.67;;;;;;;;5113054;27;44914;-83
2022/10/21 09:39:12;;;;;;;;;4.67;2.67;;;;;;;;5118315;27;45464;-84
2022/10/21 09:41:46;;;;;;;;;4.00;4.00;;;;;;;;5105203;27;45193;-86
2022/10/21 09:44:30;;;;;;;;;4.00;3.67;;;;;;;;5115760;27;44863;-88
2022/10/21 09:46:55;;;;;;;;;4.00;4.00;;;;;;;;5112405;27;44742;-83
2022/10/21 09:49:30;;;;;;;;;2.67;2.00;;;;;;;;5085976;27;45617;-75
2022/10/21 09:52:01;;;;;;;;;5.33;3.00;;;;;;;;5089385;27;45391;-76
2022/10/21 09:54:30;;;;;;;;;2.67;2.67;;;;;;;;5085866;27;45288;-76
2022/10/21 09:57:12;;;;;;;;;6.33;5.67;;;;;;;;5086468;27;45300;-75
2022/10/21 10:00:10;;;;;;;;;5.33;3.00;;;;;;;;5084447;27;45379;-76
2022/10/21 10:02:37;;;;;;;;;4.33;4.33;;;;;;;;5044844;27;45436;-74
2022/10/21 10:05:21;;;;;;;;;5.67;4.00;;;;;;;;5084359;27;45415;-74
2022/10/21 10:07:46;;;;;;;;;3.67;3.67;;;;;;;;5088666;27;45411;-74
2022/10/21 10:10:27;;;;;;;;;6.67;5.00;;;;;;;;5085686;27;45384;-74
2022/10/21 10:12:59;;;;;;;;;3.00;3.00;;;;;;;;5092568;27;45345;-74
2022/10/21 10:15:32;;;;;;;;;4.33;4.33;;;;;;;;5076667;28;45407;-74
2022/10/21 10:17:57;;;;;;;;;5.25;4.75;;;;;;;;5094452;27;45437;-75
2022/10/21 10:20:22;;;;;;;;;3.75;3.75;;;;;;;;5087274;27;45255;-74
2022/10/21 10:22:57;;;;;;;;;4.25;3.00;;;;;;;;5070312;27;45485;-74
2022/10/21 10:25:25;;;;;;;;;4.00;2.50;;;;;;;;5099851;27;45453;-74
2022/10/21 10:27:53;;;;;;;;;4.00;4.00;;;;;;;;5093317;27;45169;-74
2022/10/21 10:30:19;;;;;;;;;3.75;3.75;;;;;;;;5098658;27;45343;-74
2022/10/21 10:32:45;;;;;;;;;5.00;4.00;;;;;;;;5093291;27;45960;-75
2022/10/21 10:35:22;;;;;;;;;5.00;2.00;;;;;;;;5089856;27;45667;-73
2022/10/21 10:37:48;;;;;;;;;4.75;3.00;;;;;;;;5083072;27;45454;-73
2022/10/21 10:40:21;;;;;;;;;5.00;4.00;;;;;;;;5088399;27;45350;-74
2022/10/21 10:42:46;;;;;;;;;5.00;3.00;;;;;;;;5090539;27;45383;-73
2022/10/21 10:45:14;;;;;;;;;5.50;3.00;;;;;;;;5089911;27;45450;-73
2022/10/21 10:47:51;;;;;;;;;4.75;3.00;;;;;;;;5092031;27;45375;-73
2022/10/21 10:50:56;;;;;;;;;4.75;3.00;;;;;;;;5090149;27;45442;-75
2022/10/21 10:53:26;;;;;;;;;4.00;3.25;;;;;;;;5056111;28;45284;-74
2022/10/21 10:55:55;;;;;;;;;7.00;4.00;;;;;;;;5055427;28;45497;-74
2022/10/21 10:58:24;;;;;;;;;4.25;2.75;;;;;;;;5075137;27;45319;-74
2022/10/21 11:00:51;;;;;;;;;4.50;4.50;;;;;;;;5095316;27;46293;-74
2022/10/21 11:03:21;;;;;;;;;4.00;4.00;;;;;;;;5092523;27;45343;-74
2022/10/21 11:05:49;;;;;;;;;1.75;0.00;;;;;;;;5101378;27;45230;-74
2022/10/21 11:08:14;;;;;;;;;3.00;3.00;;;;;;;;5094368;27;45649;-73
2022/10/21 11:10:43;;;;;;;;;2.75;1.75;;;;;;;;5084183;27;45308;-73
2022/10/21 11:13:13;;;;;;;;;7.00;4.00;;;;;;;;5086843;27;45246;-73
2022/10/21 11:16:16;;;;;;;;;3.75;2.00;;;;;;;;5099610;27;45419;-72
2022/10/21 11:18:42;;;;;;;;;3.50;2.75;;;;;;;;4989102;28;45363;-73
2022/10/21 11:21:10;;;;;;;;;1.00;1.00;;;;;;;;4995821;28;45571;-74
2022/10/21 11:23:38;;;;;;;;;4.75;3.00;;;;;;;;5038354;27;45490;-73
2022/10/21 11:26:26;;;;;;;;;4.25;3.75;;;;;;;;5086603;27;45478;-74
2022/10/21 11:28:57;;;;;;;;;2.25;1.00;;;;;;;;5077066;27;45790;-73
2022/10/21 11:31:39;;;;;;;;;2.00;1.00;;;;;;;;5084870;27;46142;-73
2022/10/21 11:34:21;;;;;;;;;2.00;2.00;;;;;;;;5088864;27;45489;-74
2022/10/21 11:37:00;;;;;;;;;2.50;2.50;;;;;;;;5082515;27;45328;-73
2022/10/21 11:39:26;;;;;;;;;1.00;1.00;;;;;;;;5066738;28;45473;-73
2022/10/21 11:42:06;;;;;;;;;2.75;0.75;;;;;;;;5076406;28;47708;-74
2022/10/21 11:44:58;;;;;;;;;1.75;1.25;;;;;;;;5067786;28;45307;-75
2022/10/21 11:47:42;;;;;;;;;2.00;1.75;;;;;;;;5083615;27;45584;-73
2022/10/21 11:50:26;;;;;;;;;2.00;2.00;;;;;;;;5095915;27;45331;-73
2022/10/21 11:53:13;;;;;;;;;0.00;0.00;;;;;;;;5088781;27;45388;-73
2022/10/21 11:55:57;;;;;;;;;1.50;1.25;;;;;;;;5081490;27;45231;-74
2022/10/21 11:58:23;;;;;;;;;2.00;0.75;;;;;;;;5085808;27;46274;-73
2022/10/21 12:00:54;;;;;;;;;1.75;1.00;;;;;;;;5066076;27;46207;-74
2022/10/21 12:03:28;;;;;;;;;2.50;1.00;;;;;;;;5086359;27;45384;-73
2022/10/21 12:05:59;;;;;;;;;1.80;1.20;;;;;;;;5079404;27;45574;-73
2022/10/21 12:08:44;;;;;;;;;1.00;1.00;;;;;;;;5097691;27;45572;-73
2022/10/21 12:11:12;;;;;;;;;2.00;0.75;;;;;;;;5096133;27;45474;-73
2022/10/21 12:13:41;;;;;;;;;2.25;1.00;;;;;;;;5085353;27;45510;-73
2022/10/21 12:16:16;;;;;;;;;1.20;1.20;;;;;;;;5088467;27;45354;-74
2022/10/21 12:18:43;;;;;;;;;3.00;3.00;;;;;;;;5091112;27;45455;-74
2022/10/21 12:21:14;;;;;;;;;6.25;5.00;;;;;;;;5093479;27;45374;-74
2022/10/21 12:23:40;;;;;;;;;3.25;1.00;;;;;;;;5091534;27;45449;-73
2022/10/21 12:26:12;;;;;;;;;1.25;1.25;;;;;;;;5085738;27;44643;-73
2022/10/21 12:28:42;;;;;;;;;1.50;1.50;;;;;;;;5096108;27;45559;-73
2022/10/21 12:31:29;;;;;;;;;2.00;1.50;;;;;;;;5098601;27;45297;-73
2022/10/21 12:33:55;;;;;;;;;1.00;1.00;;;;;;;;5086092;27;46456;-73
2022/10/21 12:36:23;;;;;;;;;4.00;1.25;;;;;;;;5066266;27;45477;-74
2022/10/21 12:38:51;;;;;;;;;3.00;1.00;;;;;;;;5095302;27;45396;-73
2022/10/21 12:41:22;;;;;;;;;0.50;0.50;;;;;;;;5081483;27;45415;-73
2022/10/21 12:43:52;;;;;;;;;1.75;0.00;;;;;;;;5088927;27;46381;-73
2022/10/21 12:46:22;;;;;;;;;4.00;0.25;;;;;;;;5095882;27;45314;-73
2022/10/21 12:48:48;;;;;;;;;4.25;1.00;;;;;;;;5081799;27;45642;-73
2022/10/21 12:51:24;;;;;;;;;2.00;2.00;;;;;;;;5078422;27;45637;-73
2022/10/21 12:53:54;;;;;;;;;1.25;1.25;;;;;;;;5092692;27;46193;-73
2022/10/21 12:56:45;;;;;;;;;2.00;0.75;;;;;;;;5079023;27;45194;-73
2022/10/21 12:59:29;;;;;;;;;2.75;1.50;;;;;;;;5078031;27;45499;-73
2022/10/21 13:02:03;;;;;;;;;1.25;1.00;;;;;;;;5089796;27;45567;-73
2022/10/21 13:04:31;;;;;;;;;3.50;0.00;;;;;;;;5089402;27;45322;-73
2022/10/21 13:07:15;;;;;;;;;1.75;1.75;;;;;;;;5087853;27;45457;-74
2022/10/21 13:09:40;;;;;;;;;3.00;1.00;;;;;;;;5080857;27;45380;-73
2022/10/21 13:12:08;;;;;;;;;0.75;0.75;;;;;;;;5094642;27;45217;-73
2022/10/21 13:14:59;;;;;;;;;3.75;0.25;;;;;;;;5087012;27;45278;-73
2022/10/21 13:17:27;;;;;;;;;2.25;1.00;;;;;;;;5078660;27;45455;-73
2022/10/21 13:19:55;;;;;;;;;1.00;1.00;;;;;;;;5077333;27;45376;-73
2022/10/21 13:22:22;;;;;;;;;2.50;1.75;;;;;;;;5083540;27;45705;-73
2022/10/21 13:24:48;;;;;;;;;2.00;1.00;;;;;;;;5094623;27;45454;-73
2022/10/21 13:27:24;;;;;;;;;2.50;1.50;;;;;;;;5074050;27;45655;-74
2022/10/21 13:29:50;;;;;;;;;0.00;0.00;;;;;;;;5092841;27;45453;-74
2022/10/21 13:32:20;;;;;;;;;1.00;1.00;;;;;;;;5084619;27;45491;-72
2022/10/21 13:35:00;;;;;;;;;3.00;1.75;;;;;;;;5089814;27;46210;-73
2022/10/21 13:37:33;;;;;;;;;5.00;0.75;;;;;;;;5091374;27;45360;-73
2022/10/21 13:40:06;;;;;;;;;4.00;0.75;;;;;;;;5070439;28;45425;-73
2022/10/21 13:42:34;;;;;;;;;3.50;1.75;;;;;;;;5088190;27;45495;-73
2022/10/21 13:45:18;;;;;;;;;2.50;2.00;;;;;;;;5089550;27;46637;-73
2022/10/21 13:47:44;;;;;;;;;2.00;2.00;;;;;;;;5083257;27;45312;-73
2022/10/21 13:50:12;;;;;;;;;7.50;2.75;;;;;;;;5085636;27;45424;-73
2022/10/21 13:52:41;;;;;;;;;3.00;1.25;;;;;;;;5070101;28;46267;-72
2022/10/21 13:55:06;;;;;;;;;2.50;2.50;;;;;;;;5082145;27;46566;-72
2022/10/21 13:57:32;;;;;;;;;4.00;2.00;;;;;;;;5089122;27;45244;-72
2022/10/21 14:00:05;;;;;;;;;3.50;1.00;;;;;;;;5085891;27;45233;-72
2022/10/21 14:02:30;;;;;;;;;2.00;2.00;;;;;;;;5087612;27;45398;-72
2022/10/21 14:04:55;;;;;;;;;1.00;1.00;;;;;;;;5082603;27;47083;-72
2022/10/21 14:07:21;;;;;;;;;1.00;0.75;;;;;;;;5086108;27;45149;-72
2022/10/21 14:09:48;;;;;;;;;1.75;1.00;;;;;;;;5085720;27;45435;-72
2022/10/21 14:12:22;;;;;;;;;1.75;1.00;;;;;;;;5097244;27;45496;-72
2022/10/21 14:14:48;;;;;;;;;2.00;0.50;;;;;;;;5100898;27;45310;-73
2022/10/21 14:17:15;;;;;;;;;2.50;1.00;;;;;;;;5099103;27;45448;-72
2022/10/21 14:19:44;;;;;;;;;1.00;1.00;;;;;;;;5067605;27;45296;-72
2022/10/21 14:22:15;;;;;;;;;0.50;0.50;;;;;;;;5090446;27;45517;-72
2022/10/21 14:24:43;;;;;;;;;0.50;0.50;;;;;;;;5078225;27;48364;-72
2022/10/21 14:27:13;;;;;;;;;3.00;1.50;;;;;;;;5084350;27;45406;-72
2022/10/21 14:29:39;;;;;;;;;4.25;0.75;;;;;;;;5100987;27;45347;-73
2022/10/21 14:32:04;;;;;;;;;2.25;0.75;;;;;;;;5095688;27;45544;-72
2022/10/21 14:34:34;;;;;;;;;1.00;1.00;;;;;;;;5092542;27;46321;-72
2022/10/21 14:37:09;;;;;;;;;1.00;0.75;;;;;;;;5087459;27;45716;-71
2022/10/21 14:39:34;;;;;;;;;2.25;0.50;;;;;;;;5090217;27;45312;-71
2022/10/21 14:42:14;;;;;;;;;3.00;1.00;;;;;;;;5087277;27;45327;-72
2022/10/21 14:44:41;;;;;;;;;2.25;1.00;;;;;;;;5094219;27;45558;-71
2022/10/21 14:47:15;;;;;;;;;3.75;2.50;;;;;;;;5090924;27;46565;-71
2022/10/21 14:49:44;;;;;;;;;2.00;1.00;;;;;;;;5087503;27;45473;-72
2022/10/21 14:52:18;;;;;;;;;3.50;1.25;;;;;;;;5083712;27;45853;-71